Time;durP1;ratioP1;P1;durP2;ratioP2;P2;SDS_P1;SDS_P2;PMS_P1;PMS_P2;Temp;Humidity;BMP_temperature;BMP_pressure;BME280_temperature;BME280_humidity;BME280_pressure;Samples;Min_cycle;Max_cycle;Signal;HPM_P1;HPM_P2
2021/09/24 02:41:44;;;;;;;20.88;4.20;;;35.30;44.80;;;;;;5111066;27;20430;-61
2021/09/24 02:44:12;;;;;;;20.40;3.50;;;35.50;62.50;;;;;;5092968;28;20109;-61
2021/09/24 02:46:38;;;;;;;20.98;3.78;;;35.50;46.10;;;;;;5109688;28;20469;-61
2021/09/24 02:49:05;;;;;;;12.98;3.30;;;35.50;80.80;;;;;;5092878;28;20039;-61
2021/09/24 02:51:31;;;;;;;14.15;3.63;;;35.30;39.50;;;;;;5110780;28;20111;-63
2021/09/24 02:53:58;;;;;;;15.27;3.47;;;;;;;;;;5092608;28;20027;-62
2021/09/24 02:56:24;;;;;;;15.98;3.30;;;35.00;65.90;;;;;;5110946;28;20028;-62
2021/09/24 02:58:51;;;;;;;14.63;3.30;;;;;;;;;;5092715;28;20016;-61
2021/09/24 03:01:17;;;;;;;11.40;3.28;;;34.80;40.40;;;;;;5109291;28;20489;-61
2021/09/24 03:03:43;;;;;;;22.13;3.45;;;34.80;41.10;;;;;;5110692;28;20071;-60
2021/09/24 03:06:10;;;;;;;16.42;3.10;;;34.80;46.80;;;;;;5109499;28;20507;-60
2021/09/24 03:08:36;;;;;;;21.95;3.33;;;34.90;55.20;;;;;;5109400;28;20074;-61
2021/09/24 03:11:03;;;;;;;14.55;3.30;;;34.60;40.90;;;;;;5110179;28;20421;-61
2021/09/24 03:13:29;;;;;;;14.85;3.25;;;34.30;41.40;;;;;;5092402;28;20082;-62
2021/09/24 03:15:56;;;;;;;17.20;3.10;;;;;;;;;;5109263;28;20143;-61
2021/09/24 03:18:22;;;;;;;23.40;3.30;;;;;;;;;;5109049;28;20024;-63
2021/09/24 03:20:51;;;;;;;19.50;3.40;;;;;;;;;;5108951;28;20024;-62
2021/09/24 03:23:18;;;;;;;23.58;3.40;;;;;;;;;;5109195;28;20027;-63
2021/09/24 03:25:46;;;;;;;18.25;3.05;;;;;;;;;;5110045;28;20045;-61
2021/09/24 03:28:12;;;;;;;15.70;3.60;;;34.00;39.70;;;;;;5109106;28;20016;-61
2021/09/24 03:30:39;;;;;;;18.33;3.08;;;34.00;40.40;;;;;;5108913;28;20050;-59
2021/09/24 03:33:05;;;;;;;18.60;4.07;;;34.00;40.80;;;;;;5091701;28;20024;-62
2021/09/24 03:35:32;;;;;;;17.70;3.40;;;34.20;40.50;;;;;;5108675;28;20182;-62
2021/09/24 03:37:58;;;;;;;17.50;3.40;;;33.90;39.30;;;;;;5108650;28;20083;-61
2021/09/24 03:40:25;;;;;;;10.30;3.10;;;34.00;39.60;;;;;;5091400;28;20115;-61
2021/09/24 03:42:51;;;;;;;14.80;3.20;;;34.50;48.90;;;;;;5108569;28;20061;-61
2021/09/24 03:45:18;;;;;;;16.30;3.22;;;34.40;60.40;;;;;;5108013;28;20104;-62
2021/09/24 03:47:44;;;;;;;16.23;3.63;;;34.10;39.30;;;;;;5108246;28;20099;-61
2021/09/24 03:50:11;;;;;;;18.77;3.50;;;34.20;39.40;;;;;;5109757;28;20088;-61
2021/09/24 03:52:37;;;;;;;18.25;3.60;;;;;;;;;;5097527;28;20127;-62
2021/09/24 03:55:04;;;;;;;19.27;3.45;;;34.00;39.30;;;;;;5094739;28;20024;-60
2021/09/24 03:57:31;;;;;;;18.35;3.10;;;34.30;39.30;;;;;;5094998;28;20074;-62
2021/09/24 03:59:57;;;;;;;25.08;3.50;;;34.10;39.60;;;;;;5094535;28;20091;-61
2021/09/24 04:02:23;;;;;;;17.25;3.50;;;33.90;39.70;;;;;;5095845;28;20097;-61
2021/09/24 04:04:50;;;;;;;19.80;4.20;;;33.70;40.30;;;;;;5077932;28;20079;-60
2021/09/24 04:07:18;;;;;;;22.95;3.72;;;33.70;40.60;;;;;;5094455;28;20529;-59
2021/09/24 04:09:45;;;;;;;14.38;3.55;;;33.70;40.80;;;;;;5094432;28;20072;-61
2021/09/24 04:12:11;;;;;;;18.20;3.88;;;33.50;41.30;;;;;;5077698;28;20091;-60
2021/09/24 04:14:38;;;;;;;17.20;3.50;;;33.50;41.20;;;;;;5094389;28;20063;-62
2021/09/24 04:17:04;;;;;;;22.85;4.10;;;33.50;41.40;;;;;;5094299;28;20548;-63
2021/09/24 04:19:30;;;;;;;22.13;4.10;;;33.50;41.70;;;;;;5077484;28;20075;-60
2021/09/24 04:21:57;;;;;;;21.42;3.85;;;33.40;41.50;;;;;;5094332;28;20105;-61
2021/09/24 04:24:23;;;;;;;18.60;4.20;;;33.40;41.90;;;;;;5095641;28;20116;-61
2021/09/24 04:26:50;;;;;;;23.35;4.72;;;33.50;42.30;;;;;;5095475;28;20123;-61
2021/09/24 04:29:16;;;;;;;28.10;4.63;;;33.40;41.50;;;;;;5095594;28;20071;-62
2021/09/24 04:31:42;;;;;;;25.17;4.70;;;33.40;41.80;;;;;;5077473;28;20072;-64
2021/09/24 04:34:09;;;;;;;18.20;4.78;;;33.50;41.70;;;;;;5094071;28;20153;-63
2021/09/24 04:36:36;;;;;;;17.92;4.25;;;33.40;42.20;;;;;;5096243;28;20072;-63
2021/09/24 04:39:04;;;;;;;27.33;5.68;;;33.40;42.80;;;;;;5093750;28;20148;-64
2021/09/24 04:41:30;;;;;;;23.05;4.70;;;33.30;42.70;;;;;;5095199;28;20171;-60
2021/09/24 04:43:57;;;;;;;35.97;5.78;;;33.30;42.90;;;;;;5088078;28;20091;-62
2021/09/24 04:46:23;;;;;;;22.63;5.15;;;33.20;42.90;;;;;;5084363;28;20117;-61
2021/09/24 04:48:50;;;;;;;36.33;5.85;;;;;;;;;;5084068;28;20080;-60
2021/09/24 04:51:16;;;;;;;30.60;6.85;;;32.80;69.60;;;;;;5084834;28;20024;-62
2021/09/24 04:53:43;;;;;;;28.35;7.18;;;;;;;;;;5077838;28;20033;-62
2021/09/24 04:56:09;;;;;;;25.98;6.40;;;32.60;63.20;;;;;;5085774;28;20083;-63
2021/09/24 04:58:35;;;;;;;33.97;7.30;;;32.50;44.30;;;;;;5085157;28;20082;-61
2021/09/24 05:01:02;;;;;;;30.08;6.50;;;32.50;44.60;;;;;;5082828;28;20618;-60
2021/09/24 05:03:28;;;;;;;27.50;7.03;;;32.70;44.00;;;;;;5083217;28;20102;-60
2021/09/24 05:05:55;;;;;;;21.38;6.55;;;32.50;43.80;;;;;;5083197;28;20075;-61
2021/09/24 05:08:21;;;;;;;27.02;7.10;;;32.50;45.00;;;;;;5089825;28;20573;-60
2021/09/24 05:10:47;;;;;;;33.35;7.40;;;32.20;59.00;;;;;;5082080;28;20063;-58
2021/09/24 05:13:14;;;;;;;24.85;7.63;;;32.40;44.70;;;;;;5084368;28;20129;-59
2021/09/24 05:15:40;;;;;;;26.85;6.88;;;32.40;81.50;;;;;;5078269;28;20031;-60
2021/09/24 05:18:07;;;;;;;29.05;6.43;;;32.10;71.20;;;;;;5082235;28;20029;-59
2021/09/24 05:20:34;;;;;;;38.35;5.93;;;32.20;45.60;;;;;;5066480;28;20031;-60
2021/09/24 05:23:00;;;;;;;35.90;6.28;;;32.10;45.60;;;;;;5083978;28;20039;-60
2021/09/24 05:25:27;;;;;;;28.10;6.32;;;32.10;45.80;;;;;;5084445;28;20089;-62
2021/09/24 05:27:53;;;;;;;39.60;5.88;;;32.20;45.80;;;;;;5082138;28;20418;-60
2021/09/24 05:30:20;;;;;;;35.28;5.65;;;32.20;45.90;;;;;;5082959;28;20542;-60
2021/09/24 05:32:47;;;;;;;29.83;5.15;;;32.40;48.20;;;;;;5083959;28;20083;-60
2021/09/24 05:35:15;;;;;;;22.70;4.80;;;32.10;46.20;;;;;;5067507;28;20066;-59
2021/09/24 05:37:44;;;;;;;36.70;5.45;;;32.00;46.40;;;;;;5084791;28;20129;-60
2021/09/24 05:40:12;;;;;;;36.42;5.88;;;31.90;46.70;;;;;;5074777;28;20156;-61
2021/09/24 05:42:38;;;;;;;37.45;6.03;;;31.80;46.60;;;;;;5082727;28;20544;-60
2021/09/24 05:45:09;;;;;;;29.08;6.15;;;31.80;46.80;;;;;;5083616;28;20072;-59
2021/09/24 05:47:37;;;;;;;29.90;6.43;;;31.80;46.60;;;;;;5062519;28;20096;-59
2021/09/24 05:50:10;;;;;;;31.88;5.97;;;31.80;46.60;;;;;;5074841;28;20092;-57
2021/09/24 05:52:37;;;;;;;22.75;5.30;;;31.60;46.10;;;;;;5066852;28;20083;-60
2021/09/24 05:55:04;;;;;;;29.25;5.93;;;31.60;46.60;;;;;;5084818;28;20072;-59
2021/09/24 05:57:31;;;;;;;22.60;5.20;;;31.60;46.70;;;;;;5084605;28;20102;-59
2021/09/24 06:00:00;;;;;;;19.38;6.00;;;31.60;47.00;;;;;;5065330;28;20075;-60
2021/09/24 06:02:26;;;;;;;27.25;5.80;;;31.50;47.20;;;;;;5065542;28;20529;-58
2021/09/24 06:04:52;;;;;;;23.80;5.85;;;31.50;47.50;;;;;;5082996;28;20115;-59
2021/09/24 06:07:18;;;;;;;35.08;6.72;;;31.40;47.00;;;;;;5084765;28;20084;-59
2021/09/24 06:09:45;;;;;;;24.38;6.13;;;31.50;47.30;;;;;;5084552;28;20149;-60
2021/09/24 06:12:11;;;;;;;33.03;6.35;;;31.50;47.70;;;;;;5074451;28;20092;-60
2021/09/24 06:14:38;;;;;;;22.88;6.43;;;31.40;47.70;;;;;;5083154;28;20530;-59
2021/09/24 06:17:04;;;;;;;23.67;6.72;;;31.30;48.50;;;;;;5083376;28;20084;-61
2021/09/24 06:19:30;;;;;;;33.60;6.32;;;31.20;48.80;;;;;;5064861;28;20096;-60
2021/09/24 06:21:57;;;;;;;27.75;7.10;;;31.20;49.40;;;;;;5083588;28;20076;-60
2021/09/24 06:24:23;;;;;;;29.35;6.05;;;31.10;49.70;;;;;;5084534;28;20092;-59
2021/09/24 06:26:49;;;;;;;27.45;5.80;;;31.10;50.20;;;;;;5079661;28;20168;-60
2021/09/24 06:29:16;;;;;;;23.67;6.18;;;31.00;50.50;;;;;;5076683;28;20420;-60
2021/09/24 06:31:42;;;;;;;24.48;5.97;;;31.00;50.80;;;;;;5084328;28;20152;-60
2021/09/24 06:34:09;;;;;;;23.60;5.43;;;30.80;51.30;;;;;;5082267;28;20083;-60
2021/09/24 06:36:35;;;;;;;26.58;5.25;;;30.60;51.60;;;;;;5081725;28;20071;-60
2021/09/24 06:39:03;;;;;;;16.70;4.30;;;30.60;52.10;;;;;;5081225;28;20113;-60
2021/09/24 06:41:33;;;;;;;26.50;4.63;;;30.60;52.50;;;;;;5068620;28;20107;-61
2021/09/24 06:44:00;;;;;;;21.15;5.18;;;30.50;52.50;;;;;;5064468;28;20083;-60
2021/09/24 06:46:26;;;;;;;17.73;4.70;;;30.60;52.80;;;;;;5080863;28;20495;-60
2021/09/24 06:48:52;;;;;;;20.98;3.90;;;30.70;52.80;;;;;;5079814;28;20135;-60
2021/09/24 06:51:19;;;;;;;15.40;4.65;;;30.70;52.90;;;;;;5079800;28;20186;-60
2021/09/24 06:53:46;;;;;;;18.10;4.95;;;30.70;53.20;;;;;;5079797;28;20475;-61
2021/09/24 06:56:12;;;;;;;20.95;4.72;;;30.70;52.80;;;;;;5080789;28;20143;-60
2021/09/24 06:58:39;;;;;;;18.88;4.38;;;30.50;52.80;;;;;;5061562;28;20125;-60
2021/09/24 07:01:05;;;;;;;21.00;4.40;;;30.30;53.90;;;;;;5080035;28;20083;-59
2021/09/24 07:03:32;;;;;;;18.10;4.30;;;30.40;53.90;;;;;;5080073;28;20072;-59
2021/09/24 07:05:58;;;;;;;15.63;4.40;;;30.50;54.40;;;;;;5080349;28;20094;-58
2021/09/24 07:08:24;;;;;;;20.15;4.85;;;30.40;54.20;;;;;;5078762;28;20073;-59
2021/09/24 07:10:51;;;;;;;12.82;4.60;;;30.20;54.30;;;;;;5079116;28;20210;-60
2021/09/24 07:13:17;;;;;;;19.60;4.80;;;30.20;55.00;;;;;;5081222;28;20079;-59
2021/09/24 07:15:44;;;;;;;15.98;4.75;;;30.10;54.70;;;;;;5068310;28;20061;-60
2021/09/24 07:18:11;;;;;;;36.30;5.40;;;30.00;55.20;;;;;;5078789;28;20152;-62
2021/09/24 07:20:38;;;;;;;14.57;4.30;;;29.80;55.60;;;;;;5079124;28;20075;-62
2021/09/24 07:23:04;;;;;;;11.20;3.35;;;29.80;55.90;;;;;;5080026;28;20529;-61
2021/09/24 07:25:31;;;;;;;13.38;3.60;;;29.80;56.50;;;;;;5080278;28;20083;-60
2021/09/24 07:27:57;;;;;;;12.77;3.88;;;29.60;56.40;;;;;;5084129;28;20085;-60
2021/09/24 07:30:23;;;;;;;13.32;4.10;;;29.50;57.10;;;;;;5083356;28;20485;-60
2021/09/24 07:32:50;;;;;;;9.70;3.55;;;29.50;57.00;;;;;;5085024;28;20067;-61
2021/09/24 07:35:16;;;;;;;15.80;4.18;;;29.60;57.30;;;;;;5083255;28;20104;-60
2021/09/24 07:37:43;;;;;;;12.85;3.67;;;29.60;57.40;;;;;;5086064;28;20110;-60
2021/09/24 07:40:10;;;;;;;16.45;4.60;;;29.60;57.50;;;;;;5082077;28;20115;-60
2021/09/24 07:42:36;;;;;;;12.40;4.05;;;29.50;57.70;;;;;;5083918;28;20221;-60
2021/09/24 07:45:03;;;;;;;12.77;3.92;;;29.40;58.10;;;;;;5083478;28;20125;-61
2021/09/24 07:47:29;;;;;;;13.63;4.20;;;29.40;58.20;;;;;;5081262;28;20095;-62
2021/09/24 07:49:56;;;;;;;12.00;3.30;;;29.50;58.40;;;;;;5085152;28;20499;-62
2021/09/24 07:52:22;;;;;;;25.27;4.55;;;29.40;58.70;;;;;;5098603;28;20065;-63
2021/09/24 07:54:49;;;;;;;14.55;3.45;;;29.30;59.10;;;;;;5074191;28;20476;-61
2021/09/24 07:57:15;;;;;;;11.38;3.65;;;29.30;59.40;;;;;;5086524;28;20080;-61
2021/09/24 07:59:42;;;;;;;16.67;4.35;;;29.30;59.40;;;;;;5085767;28;20084;-60
2021/09/24 08:02:10;;;;;;;13.10;3.45;;;29.30;59.50;;;;;;5086019;28;20096;-59
2021/09/24 08:04:36;;;;;;;12.10;3.75;;;29.20;59.80;;;;;;5080576;28;20169;-59
2021/09/24 08:07:06;;;;;;;10.43;4.25;;;29.30;59.80;;;;;;5098631;28;20065;-60
2021/09/24 08:09:32;;;;;;;18.20;4.30;;;29.40;59.50;;;;;;5074770;28;20079;-61
2021/09/24 08:11:59;;;;;;;17.50;4.82;;;29.40;59.50;;;;;;5080786;28;20068;-61
2021/09/24 08:14:26;;;;;;;22.40;5.25;;;29.40;59.40;;;;;;5081119;28;20068;-61
2021/09/24 08:16:52;;;;;;;9.93;4.10;;;29.30;59.50;;;;;;5081686;28;20076;-60
2021/09/24 08:19:18;;;;;;;13.18;3.80;;;29.30;59.80;;;;;;5082752;28;20099;-59
2021/09/24 08:21:45;;;;;;;13.00;4.05;;;29.10;60.20;;;;;;5069878;28;20078;-61
2021/09/24 08:24:11;;;;;;;14.45;4.32;;;29.10;60.50;;;;;;5084422;28;20592;-58
2021/09/24 08:26:38;;;;;;;9.07;4.00;;;29.00;60.80;;;;;;5084774;28;20115;-61
2021/09/24 08:29:04;;;;;;;8.70;3.92;;;28.90;60.80;;;;;;5081813;28;20167;-62
2021/09/24 08:31:31;;;;;;;11.82;4.28;;;29.00;61.80;;;;;;5084716;28;20100;-59
2021/09/24 08:33:58;;;;;;;19.48;4.65;;;29.10;61.80;;;;;;5082335;28;20076;-60
2021/09/24 08:36:26;;;;;;;13.77;4.30;;;29.10;61.60;;;;;;5080064;28;20092;-60
2021/09/24 08:38:53;;;;;;;12.40;4.20;;;29.10;62.00;;;;;;5081611;28;20075;-60
2021/09/24 08:41:25;;;;;;;11.50;4.07;;;29.00;62.00;;;;;;5086244;28;20115;-60
2021/09/24 08:43:52;;;;;;;14.25;4.75;;;29.00;61.90;;;;;;5082765;28;20067;-61
2021/09/24 08:46:19;;;;;;;13.25;4.10;;;29.00;62.30;;;;;;5083035;28;20111;-60
2021/09/24 08:48:45;;;;;;;14.27;4.22;;;29.00;62.20;;;;;;5082242;28;20221;-61
2021/09/24 08:51:12;;;;;;;9.95;4.00;;;28.90;62.40;;;;;;5084772;28;20492;-60
2021/09/24 08:53:38;;;;;;;10.93;4.05;;;28.70;63.40;;;;;;5081871;28;20101;-59
2021/09/24 08:56:05;;;;;;;9.27;3.90;;;28.70;64.10;;;;;;5083391;28;20499;-60
2021/09/24 08:58:32;;;;;;;13.27;4.38;;;28.60;64.80;;;;;;5084336;28;20111;-58
2021/09/24 09:00:58;;;;;;;13.70;4.25;;;28.60;64.80;;;;;;5083188;28;20065;-58
2021/09/24 09:03:40;;;;;;;15.00;4.10;;;28.60;88.70;;;;;;5069521;28;20107;-58
2021/09/24 09:06:08;;;;;;;16.73;3.88;;;28.10;92.40;;;;;;5072052;28;20075;-60
2021/09/24 09:08:35;;;;;;;12.68;4.10;;;28.60;65.60;;;;;;5082880;28;20079;-62
2021/09/24 09:11:10;;;;;;;12.95;4.32;;;28.50;66.20;;;;;;5081999;28;20581;-60
2021/09/24 09:13:47;;;;;;;11.25;4.82;;;28.50;66.80;;;;;;5068918;28;20551;-60
2021/09/24 09:16:16;;;;;;;16.90;4.55;;;28.50;66.90;;;;;;5084183;28;20080;-57
2021/09/24 09:18:45;;;;;;;18.15;4.75;;;28.50;67.00;;;;;;5070460;28;20118;-61
2021/09/24 09:21:15;;;;;;;16.85;4.35;;;28.40;67.20;;;;;;5082830;28;20507;-60
2021/09/24 09:23:51;;;;;;;17.00;5.35;;;28.40;67.50;;;;;;5081094;28;20100;-59
2021/09/24 09:26:18;;;;;;;;;;;28.30;67.60;;;;;;5081673;28;20095;-59
2021/09/24 09:28:57;;;;;;;14.82;5.72;;;28.30;67.70;;;;;;5071246;28;20028;-57
2021/09/24 09:31:32;;;;;;;14.10;5.60;;;28.30;68.50;;;;;;5083198;28;20088;-60
2021/09/24 09:34:11;;;;;;;17.92;6.22;;;28.40;68.30;;;;;;5082480;28;20074;-61
2021/09/24 09:36:42;;;;;;;14.02;5.85;;;28.50;68.40;;;;;;5083605;28;20073;-59
2021/09/24 09:39:14;;;;;;;17.83;6.05;;;28.40;68.30;;;;;;5079390;28;20077;-61
2021/09/24 09:41:50;;;;;;;21.60;7.18;;;28.50;68.60;;;;;;5085451;28;20109;-59
2021/09/24 09:44:29;;;;;;;28.20;9.70;;;28.40;68.60;;;;;;5080181;28;20419;-59
2021/09/24 09:46:56;;;;;;;29.83;11.13;;;28.30;69.20;;;;;;5066781;28;20128;-59
2021/09/24 09:49:26;;;;;;;32.33;11.93;;;28.30;69.80;;;;;;5081035;28;20185;-59
2021/09/24 09:52:13;;;;;;;29.95;12.02;;;28.30;69.80;;;;;;5069643;28;20115;-59
2021/09/24 09:54:40;;;;;;;31.70;11.00;;;28.30;70.10;;;;;;5083724;28;20065;-60
2021/09/24 09:57:19;;;;;;;27.38;12.40;;;28.30;70.10;;;;;;5080092;28;20166;-57
2021/09/24 09:59:53;;;;;;;36.20;11.73;;;28.30;70.30;;;;;;5078243;28;20069;-58
2021/09/24 10:02:24;;;;;;;25.65;11.02;;;28.40;69.90;;;;;;5081019;28;20070;-61
2021/09/24 10:04:53;;;;;;;40.22;14.45;;;28.40;70.70;;;;;;5080704;28;20074;-60
2021/09/24 10:07:26;;;;;;;33.03;13.00;;;28.30;70.60;;;;;;5081164;28;20103;-60
2021/09/24 10:10:22;;;;;;;39.42;14.63;;;28.20;70.90;;;;;;5080067;28;20184;-59
2021/09/24 10:12:49;;;;;;;41.75;14.30;;;28.20;71.40;;;;;;5066955;28;20156;-58
2021/09/24 10:15:16;;;;;;;34.42;14.13;;;28.20;71.50;;;;;;5078605;28;20073;-60
2021/09/24 10:17:43;;;;;;;47.78;19.38;;;28.10;71.70;;;;;;5083708;28;20148;-61
2021/09/24 10:20:11;;;;;;;48.88;18.88;;;28.20;71.80;;;;;;5079456;28;20608;-61
2021/09/24 10:22:38;;;;;;;54.75;19.20;;;28.30;72.40;;;;;;5071136;28;20100;-60
2021/09/24 10:25:05;;;;;;;53.17;18.92;;;28.30;71.10;;;;;;5078130;28;20077;-58
2021/09/24 10:27:44;;;;;;;52.97;17.58;;;28.30;71.10;;;;;;5078721;28;20128;-58
2021/09/24 10:30:24;;;;;;;43.65;16.88;;;28.30;71.50;;;;;;5079324;28;20094;-61
2021/09/24 10:32:56;;;;;;;48.17;18.33;;;28.20;71.60;;;;;;5079212;28;20068;-61
2021/09/24 10:35:33;;;;;;;47.90;18.30;;;28.20;72.00;;;;;;5073122;28;20600;-60
2021/09/24 10:38:08;;;;;;;55.92;18.58;;;28.10;72.30;;;;;;5069805;28;20076;-61
2021/09/24 10:40:34;;;;;;;46.72;19.40;;;28.10;72.40;;;;;;5054387;28;20119;-60
2021/09/24 10:43:12;;;;;;;50.20;17.48;;;28.10;72.30;;;;;;5080438;28;20068;-59
2021/09/24 10:45:41;;;;;;;46.35;18.10;;;28.20;72.30;;;;;;5080172;28;20098;-61
2021/09/24 10:48:18;;;;;;;53.70;18.65;;;28.20;72.20;;;;;;5081369;28;20485;-61
2021/09/24 10:50:45;;;;;;;53.55;19.08;;;28.20;72.10;;;;;;5079824;28;20097;-61
2021/09/24 10:53:18;;;;;;;51.05;19.40;;;28.20;72.20;;;;;;5079000;28;20571;-60
2021/09/24 10:56:07;;;;;;;60.75;20.73;;;28.20;72.40;;;;;;5077561;28;20072;-61
2021/09/24 10:58:43;;;;;;;58.92;18.30;;;28.20;72.60;;;;;;5077330;28;20084;-59
2021/09/24 11:01:12;;;;;;;50.72;18.40;;;28.20;72.30;;;;;;5067163;28;20120;-60
2021/09/24 11:04:10;;;;;;;58.17;18.08;;;28.00;72.60;;;;;;5084153;28;20076;-61
2021/09/24 11:06:38;;;;;;;43.83;17.33;;;28.10;72.90;;;;;;5068244;28;20079;-60
2021/09/24 11:09:08;;;;;;;50.83;18.05;;;28.00;72.90;;;;;;5087554;28;20096;-58
2021/09/24 11:11:36;;;;;;;48.85;16.45;;;27.90;72.90;;;;;;5074441;28;20097;-58
2021/09/24 11:14:30;;;;;;;45.72;16.77;;;27.90;73.20;;;;;;5070897;28;20142;-59
2021/09/24 11:16:57;;;;;;;54.63;18.77;;;28.00;73.20;;;;;;5083866;28;20069;-58
2021/09/24 11:19:36;;;;;;;50.15;16.70;;;27.90;73.10;;;;;;5083520;28;20088;-60
2021/09/24 11:22:12;;;;;;;53.55;18.88;;;27.90;73.50;;;;;;5083649;28;20080;-61
2021/09/24 11:24:48;;;;;;;46.58;17.75;;;27.90;73.60;;;;;;5083378;28;20080;-60
2021/09/24 11:27:30;;;;;;;59.25;18.52;;;27.80;74.10;;;;;;5072396;28;20104;-59
2021/09/24 11:30:04;;;;;;;52.05;18.27;;;27.70;74.50;;;;;;5068636;28;20492;-59
2021/09/24 11:32:32;;;;;;;50.92;18.70;;;27.80;74.80;;;;;;5087116;28;20407;-59
2021/09/24 11:34:59;;;;;;;62.95;20.17;;;27.80;74.80;;;;;;5055853;28;20069;-59
2021/09/24 11:37:34;;;;;;;63.03;20.42;;;27.80;75.00;;;;;;5082766;28;20103;-60
2021/09/24 11:40:06;;;;;;;59.47;20.48;;;27.80;75.10;;;;;;5084203;28;20111;-61
2021/09/24 11:42:50;;;;;;;56.13;20.20;;;27.60;75.60;;;;;;5082511;28;20463;-59
2021/09/24 11:45:23;;;;;;;61.60;21.95;;;27.60;76.20;;;;;;5080522;28;20125;-61
2021/09/24 11:48:25;;;;;;;57.28;22.05;;;27.50;76.60;;;;;;5080579;28;20068;-57
2021/09/24 11:50:56;;;;;;;60.80;19.92;;;27.50;76.90;;;;;;5082180;28;20172;-58
2021/09/24 11:53:22;;;;;;;57.15;21.30;;;27.50;76.90;;;;;;5081337;28;20113;-60
2021/09/24 11:55:48;;;;;;;48.70;20.55;;;27.30;90.20;;;;;;5083402;28;20108;-61
2021/09/24 11:58:24;;;;;;;48.08;18.52;;;27.60;76.80;;;;;;5083112;28;20162;-61
2021/09/24 12:00:57;;;;;;;48.97;19.77;;;27.50;76.60;;;;;;5082383;28;20076;-60
2021/09/24 12:03:34;;;;;;;48.38;19.65;;;27.50;77.30;;;;;;5085781;28;20103;-60
2021/09/24 12:06:12;;;;;;;60.83;20.50;;;27.50;84.80;;;;;;5085845;28;20100;-60
2021/09/24 12:08:50;;;;;;;57.42;20.35;;;27.40;77.30;;;;;;5083918;28;20080;-62
2021/09/24 12:11:25;;;;;;;51.28;19.42;;;27.50;77.00;;;;;;5084038;28;20092;-61
2021/09/24 12:13:58;;;;;;;54.25;17.80;;;27.40;77.10;;;;;;5083785;28;20076;-62
2021/09/24 12:16:40;;;;;;;43.47;17.42;;;27.40;77.10;;;;;;5084433;28;20080;-60
2021/09/24 12:19:13;;;;;;;53.45;17.00;;;27.50;76.80;;;;;;5084398;28;20106;-58
2021/09/24 12:21:46;;;;;;;46.00;16.50;;;27.60;76.30;;;;;;5083959;28;20111;-60
2021/09/24 12:24:15;;;;;;;43.97;17.08;;;27.70;76.00;;;;;;5081557;28;20083;-59
2021/09/24 12:26:44;;;;;;;45.28;14.00;;;27.70;75.90;;;;;;5070733;28;20083;-60
2021/09/24 12:29:22;;;;;;;39.28;14.40;;;27.70;75.80;;;;;;5067791;28;20072;-63
2021/09/24 12:31:54;;;;;;;39.28;12.82;;;27.60;75.70;;;;;;5082775;28;20186;-58
2021/09/24 12:34:23;;;;;;;36.95;12.48;;;27.60;75.20;;;;;;5070736;28;20103;-59
2021/09/24 12:37:02;;;;;;;30.75;13.00;;;27.70;75.00;;;;;;5083589;28;20459;-58
2021/09/24 12:39:36;;;;;;;38.53;12.73;;;27.70;75.90;;;;;;5083580;28;20448;-60
2021/09/24 12:42:12;;;;;;;36.97;12.15;;;27.70;75.60;;;;;;5066227;28;20072;-59
2021/09/24 12:45:12;;;;;;;36.63;12.20;;;27.80;75.50;;;;;;5082714;28;20115;-61
2021/09/24 12:47:39;;;;;;;28.63;11.40;;;27.80;74.20;;;;;;4974339;28;20171;-58
2021/09/24 12:50:09;;;;;;;32.03;11.30;;;27.70;73.80;;;;;;4994965;28;20721;-59
2021/09/24 12:52:37;;;;;;;40.55;12.45;;;27.70;74.00;;;;;;5007178;28;20087;-59
2021/09/24 12:55:07;;;;;;;32.47;11.38;;;27.60;74.10;;;;;;5003454;28;20129;-59
2021/09/24 12:57:34;;;;;;;34.83;12.43;;;27.70;74.50;;;;;;5003768;28;20121;-59
2021/09/24 13:00:05;;;;;;;33.65;11.45;;;27.60;74.40;;;;;;4975088;28;20176;-60
2021/09/24 13:02:34;;;;;;;33.92;11.82;;;27.70;74.60;;;;;;5006355;28;20089;-59
2021/09/24 13:05:00;;;;;;;34.38;11.05;;;27.70;74.30;;;;;;4974761;28;20089;-58
2021/09/24 13:07:31;;;;;;;29.73;11.20;;;27.70;74.40;;;;;;4993473;28;20109;-61
2021/09/24 13:10:10;;;;;;;27.27;11.98;;;27.60;74.70;;;;;;4977037;28;20529;-61
2021/09/24 13:12:39;;;;;;;29.40;12.02;;;27.60;74.70;;;;;;4994863;28;20077;-59
2021/09/24 13:15:08;;;;;;;34.70;12.40;;;27.60;74.20;;;;;;4990502;28;20130;-59
2021/09/24 13:17:35;;;;;;;40.17;13.60;;;27.60;74.60;;;;;;5004425;28;20182;-59
2021/09/24 13:20:03;;;;;;;33.42;12.90;;;27.50;76.30;;;;;;5003271;28;20124;-58
2021/09/24 13:22:31;;;;;;;34.63;12.25;;;28.00;95.60;;;;;;4987107;28;20544;-58
2021/09/24 13:24:57;;;;;;;29.42;12.40;;;27.50;75.60;;;;;;5077004;28;20087;-58
2021/09/24 13:27:24;;;;;;;31.10;12.77;;;27.60;75.70;;;;;;5080757;28;20084;-58
2021/09/24 13:29:50;;;;;;;34.88;12.65;;;27.50;75.70;;;;;;5083811;28;20163;-61
2021/09/24 13:32:17;;;;;;;36.70;13.90;;;27.40;76.00;;;;;;5067076;28;20111;-60
2021/09/24 13:34:44;;;;;;;41.53;14.52;;;27.50;76.70;;;;;;5067826;28;20543;-60
2021/09/24 13:37:11;;;;;;;37.83;13.80;;;27.50;76.60;;;;;;5066406;28;20084;-59
2021/09/24 13:39:38;;;;;;;46.95;16.33;;;27.60;76.60;;;;;;5069649;28;20124;-60
2021/09/24 13:42:06;;;;;;;38.28;15.45;;;27.50;77.00;;;;;;5055357;28;20162;-59
2021/09/24 13:44:32;;;;;;;41.72;15.05;;;27.50;77.00;;;;;;5083496;28;20160;-60
2021/09/24 13:46:59;;;;;;;41.33;15.77;;;27.40;77.30;;;;;;5067973;28;20142;-58
2021/09/24 13:49:25;;;;;;;42.42;14.25;;;27.40;77.90;;;;;;5066013;28;20510;-59
2021/09/24 13:51:52;;;;;;;36.80;14.25;;;27.50;77.60;;;;;;5070283;28;20092;-59
2021/09/24 13:54:19;;;;;;;38.00;15.15;;;27.40;77.30;;;;;;5068778;28;20072;-57
2021/09/24 13:56:45;;;;;;;38.90;16.02;;;27.30;77.80;;;;;;5079957;28;20102;-59
2021/09/24 13:59:12;;;;;;;45.08;14.88;;;27.40;78.10;;;;;;5079710;28;20212;-60
2021/09/24 14:01:39;;;;;;;38.97;14.75;;;27.40;77.90;;;;;;5079618;28;20088;-58
2021/09/24 14:04:06;;;;;;;42.22;15.98;;;27.30;79.30;;;;;;5082589;28;20094;-58
2021/09/24 14:06:32;;;;;;;47.67;15.40;;;27.40;78.40;;;;;;5084194;28;20087;-58
2021/09/24 14:08:59;;;;;;;43.95;15.45;;;27.40;78.10;;;;;;5074439;28;20595;-59
2021/09/24 14:11:25;;;;;;;52.88;15.63;;;27.40;78.60;;;;;;5082257;28;20085;-57
2021/09/24 14:13:52;;;;;;;47.90;16.45;;;27.40;78.80;;;;;;5081119;28;20067;-59
2021/09/24 14:16:18;;;;;;;44.15;15.25;;;27.40;78.80;;;;;;5078943;28;20155;-58
2021/09/24 14:18:44;;;;;;;49.05;15.25;;;27.40;78.40;;;;;;5083353;28;20551;-58
2021/09/24 14:21:11;;;;;;;39.00;14.00;;;27.40;78.70;;;;;;5083026;28;20077;-59
2021/09/24 14:23:38;;;;;;;43.08;14.10;;;27.40;78.90;;;;;;5079394;28;20076;-57
2021/09/24 14:26:04;;;;;;;42.63;15.18;;;27.40;78.20;;;;;;5082856;28;20288;-58
2021/09/24 14:28:30;;;;;;;42.03;14.85;;;27.40;77.80;;;;;;5079657;28;20140;-61
2021/09/24 14:30:57;;;;;;;47.22;13.40;;;27.40;77.90;;;;;;5079555;28;20088;-59
2021/09/24 14:33:23;;;;;;;33.25;12.88;;;27.40;85.10;;;;;;5078921;28;20086;-59
2021/09/24 14:35:50;;;;;;;52.25;14.90;;;27.40;78.00;;;;;;5082636;28;20071;-61
2021/09/24 14:38:16;;;;;;;45.40;13.95;;;27.40;78.10;;;;;;5083646;28;20068;-60
2021/09/24 14:40:43;;;;;;;52.65;15.15;;;27.40;78.00;;;;;;5065580;28;20658;-59
2021/09/24 14:43:10;;;;;;;46.13;15.55;;;27.40;78.20;;;;;;5099855;28;20080;-60
2021/09/24 14:45:37;;;;;;;48.10;18.10;;;27.40;77.00;;;;;;5066604;28;20095;-61
2021/09/24 14:48:04;;;;;;;53.05;18.98;;;27.40;77.60;;;;;;5083004;28;20534;-58
2021/09/24 14:50:30;;;;;;;54.63;17.45;;;27.30;78.30;;;;;;5080022;28;20083;-59
2021/09/24 14:52:57;;;;;;;39.33;15.10;;;27.40;93.40;;;;;;5063255;28;20371;-59
2021/09/24 14:55:23;;;;;;;49.15;14.20;;;27.30;76.90;;;;;;5080892;28;20072;-59
2021/09/24 14:57:49;;;;;;;49.72;15.18;;;27.30;76.20;;;;;;5080596;28;20073;-58
2021/09/24 15:00:16;;;;;;;51.53;14.43;;;27.20;86.60;;;;;;5082832;28;20162;-58
2021/09/24 15:02:43;;;;;;;49.58;12.77;;;27.20;76.40;;;;;;5081787;28;20077;-59
2021/09/24 15:05:10;;;;;;;44.35;13.20;;;27.10;75.40;;;;;;5074168;28;20080;-59
2021/09/24 15:07:36;;;;;;;32.85;11.50;;;27.10;75.50;;;;;;5089866;28;20105;-59
2021/09/24 15:10:05;;;;;;;31.10;11.77;;;27.10;75.30;;;;;;5082182;28;20115;-59
2021/09/24 15:12:32;;;;;;;41.58;12.30;;;27.00;75.20;;;;;;5066273;28;20556;-58
2021/09/24 15:14:58;;;;;;;34.28;10.77;;;27.10;75.10;;;;;;5082356;28;20089;-58
2021/09/24 15:17:25;;;;;;;43.90;10.98;;;27.10;75.30;;;;;;5080513;28;20072;-60
2021/09/24 15:19:54;;;;;;;31.63;8.60;;;27.10;74.10;;;;;;5082053;28;20078;-62
2021/09/24 15:22:21;;;;;;;30.95;8.20;;;27.10;74.00;;;;;;5080542;28;20076;-61
2021/09/24 15:24:50;;;;;;;30.65;8.18;;;27.10;74.30;;;;;;5080641;28;20070;-59